Terminal Aerodrome Forecast
Issued by NWS

Home | Current Version | Previous Version | Text Only | Print | Product List | Glossary On
Versions: 1 2 3 4 5 6 7 8 9 10 11 12
000
FTUS43 KPAH 270500
TAFCGI
TAF
KCGI 270533Z 2706/2806 16007KT 6SM -SHRA BR OVC035
     FM270800 17008KT 6SM -SHRA BR SCT012 OVC025
     FM271100 17007KT 4SM -RA BR OVC012
     FM271400 21006KT 3SM -RADZ BR OVC008
     FM272200 31007KT 6SM BR OVC012
     FM280100 35010KT P6SM BKN012 OVC050=

USA.gov is the U.S. government's official web portal to all federal, state and local government web resources and services.